createdAt,value
2024-01-24T00:02:05.016Z,101672.03
2024-01-24T00:05:29.526Z,101678.13
2024-01-24T00:08:52.291Z,101669.38
2024-01-24T00:12:18.034Z,101658.03
2024-01-24T00:15:42.874Z,101667.84
2024-01-24T00:19:07.056Z,101673.91
2024-01-24T00:22:36.133Z,101672.94
2024-01-24T00:25:59.076Z,101671.88
2024-01-24T00:29:21.679Z,101678.06
2024-01-24T00:32:44.252Z,101678.97
2024-01-24T00:36:11.547Z,101678.28
2024-01-24T00:39:34.648Z,101688.13
2024-01-24T00:42:57.085Z,101681.13
2024-01-24T00:46:19.652Z,101659.69
2024-01-24T00:49:42.457Z,101659.78
2024-01-24T00:53:11.504Z,101654.56
2024-01-24T00:56:36.739Z,101665.09
2024-01-24T01:00:07.530Z,101677.44
2024-01-24T01:03:30.297Z,101686.12
2024-01-24T01:06:54.975Z,101676.97
2024-01-24T01:10:22.132Z,101672.06
2024-01-24T01:13:44.972Z,101683.25
2024-01-24T01:17:07.850Z,101681.50
2024-01-24T01:20:30.288Z,101678.78
2024-01-24T01:23:52.884Z,101675.47
2024-01-24T01:27:19.556Z,101656.06
2024-01-24T01:30:41.923Z,101643.78
2024-01-24T01:34:05.495Z,101642.91
2024-01-24T01:37:31.884Z,101630.19
2024-01-24T01:40:55.043Z,101629.53
2024-01-24T01:44:19.090Z,101634.00
2024-01-24T01:47:42.161Z,101627.78
2024-01-24T01:51:04.848Z,101616.37
2024-01-24T01:54:30.523Z,101603.13
2024-01-24T01:57:53.057Z,101596.91
2024-01-24T02:01:17.918Z,101591.56
2024-01-24T02:04:41.387Z,101583.59
2024-01-24T02:08:04.192Z,101582.56
2024-01-24T02:11:26.746Z,101587.16
2024-01-24T02:14:52.176Z,101580.41
2024-01-24T02:18:16.318Z,101576.81
2024-01-24T02:21:39.449Z,101579.34
2024-01-24T02:25:03.660Z,101592.38
2024-01-24T02:28:26.377Z,101579.75
2024-01-24T02:31:48.945Z,101561.47
2024-01-24T02:35:11.408Z,101576.37
2024-01-24T02:38:34.333Z,101568.41
2024-01-24T02:41:58.192Z,101564.22
2024-01-24T02:45:23.710Z,101561.47
2024-01-24T02:48:46.635Z,101559.06
2024-01-24T02:52:09.231Z,101555.53
2024-01-24T02:55:34.459Z,101552.97
2024-01-24T02:58:58.340Z,101562.59
2024-01-24T03:02:20.934Z,101559.78
2024-01-24T03:05:43.939Z,101561.44
2024-01-24T03:09:06.825Z,101554.78
2024-01-24T03:12:29.451Z,101550.31
2024-01-24T03:15:53.725Z,101555.47
2024-01-24T03:19:16.688Z,101537.91
2024-01-24T03:22:39.793Z,101530.97
2024-01-24T03:26:02.196Z,101526.28
2024-01-24T03:29:24.891Z,101511.97
2024-01-24T03:32:48.949Z,101496.09
2024-01-24T03:36:12.061Z,101483.31
2024-01-24T03:39:37.394Z,101479.69
2024-01-24T03:43:02.537Z,101467.19
2024-01-24T03:46:25.276Z,101468.97
2024-01-24T03:49:50.856Z,101467.19
2024-01-24T03:53:13.471Z,101473.56
2024-01-24T03:56:36.320Z,101472.78
2024-01-24T04:00:01.783Z,101471.13
2024-01-24T04:03:34.751Z,101471.19
2024-01-24T04:06:59.333Z,101474.88
2024-01-24T04:10:21.741Z,101482.75
2024-01-24T04:13:47.020Z,101468.69
2024-01-24T04:17:09.852Z,101478.38
2024-01-24T04:20:32.513Z,101474.75
2024-01-24T04:23:56.515Z,101481.75
2024-01-24T04:27:22.287Z,101476.59
2024-01-24T04:30:45.156Z,101485.44
2024-01-24T04:34:13.477Z,101486.31
2024-01-24T04:37:35.982Z,101477.37
2024-01-24T04:41:06.538Z,101474.84
2024-01-24T04:44:29.367Z,101488.06
2024-01-24T04:47:55.243Z,101483.72
2024-01-24T04:51:20.870Z,101485.53
2024-01-24T04:54:44.308Z,101482.91
2024-01-24T04:58:08.481Z,101485.56
2024-01-24T05:01:32.435Z,101483.81
2024-01-24T05:04:54.827Z,101481.19
2024-01-24T05:08:17.491Z,101482.06
2024-01-24T05:11:43.192Z,101469.72
2024-01-24T05:15:09.798Z,101467.97
2024-01-24T05:18:32.881Z,101459.12
2024-01-24T05:21:56.015Z,101459.12
2024-01-24T05:25:18.790Z,101462.66
2024-01-24T05:28:42.382Z,101456.38
2024-01-24T05:32:07.147Z,101446.72
2024-01-24T05:35:31.803Z,101438.72
2024-01-24T05:38:56.058Z,101441.31
2024-01-24T05:42:19.115Z,101441.25
2024-01-24T05:45:42.137Z,101444.66
2024-01-24T05:49:06.527Z,101447.47
2024-01-24T05:52:32.020Z,101448.19
2024-01-24T05:55:54.841Z,101445.44
2024-01-24T05:59:17.475Z,101429.66
2024-01-24T06:02:40.182Z,101422.34
2024-01-24T06:06:04.412Z,101410.06
2024-01-24T06:09:30.245Z,101398.69
2024-01-24T06:12:52.942Z,101398.50
2024-01-24T06:16:15.461Z,101407.44
2024-01-24T06:19:38.305Z,101410.94
2024-01-24T06:23:02.415Z,101406.41
2024-01-24T06:26:25.249Z,101407.31
2024-01-24T06:30:17.263Z,101398.47
2024-01-24T06:33:33.659Z,101398.44
2024-01-24T06:36:58.759Z,101397.56
2024-01-24T06:40:23.398Z,101395.12
2024-01-24T06:43:45.831Z,101393.28
2024-01-24T06:47:08.804Z,101382.75
2024-01-24T06:50:34.742Z,101368.59
2024-01-24T06:53:57.363Z,101356.19
2024-01-24T06:57:21.533Z,101345.41
2024-01-24T07:00:47.839Z,101331.31
2024-01-24T07:04:11.319Z,101319.72
2024-01-24T07:07:34.455Z,101299.47
2024-01-24T07:10:57.109Z,101316.25
2024-01-24T07:14:20.935Z,101313.50
2024-01-24T07:17:43.642Z,101317.72
2024-01-24T07:21:07.970Z,101301.56
2024-01-24T07:24:33.100Z,101314.75
2024-01-24T07:27:55.910Z,101306.75
2024-01-24T07:31:20.671Z,101285.34
2024-01-24T07:34:48.455Z,101274.72
2024-01-24T07:38:11.399Z,101291.09
2024-01-24T07:41:34.135Z,101282.03
2024-01-24T07:44:56.800Z,101273.13
2024-01-24T07:48:21.515Z,101270.84
2024-01-24T07:51:48.310Z,101254.78
2024-01-24T07:55:17.991Z,101247.75
2024-01-24T07:58:49.193Z,101244.69
2024-01-24T08:02:12.445Z,101252.00
2024-01-24T08:05:36.761Z,101251.69
2024-01-24T08:09:05.065Z,101248.75
2024-01-24T08:12:27.706Z,101248.19
2024-01-24T08:15:50.468Z,101233.72
2024-01-24T08:19:14.021Z,101223.97
2024-01-24T08:22:38.348Z,101225.25
2024-01-24T08:26:00.987Z,101243.75
2024-01-24T08:29:36.084Z,101250.22
2024-01-24T08:33:03.544Z,101226.31
2024-01-24T08:36:39.586Z,101222.78
2024-01-24T08:40:04.184Z,101233.72
2024-01-24T08:43:26.456Z,101241.91
2024-01-24T08:46:50.256Z,101222.94
2024-01-24T08:50:15.921Z,101224.97
2024-01-24T08:53:39.680Z,101228.09
2024-01-24T08:57:05.093Z,101234.28
2024-01-24T09:00:30.754Z,101239.06
2024-01-24T09:03:54.649Z,101227.25
2024-01-24T09:07:21.414Z,101228.59
2024-01-24T09:10:44.092Z,101205.72
2024-01-24T09:14:08.594Z,101209.13
2024-01-24T09:17:31.408Z,101190.91
2024-01-24T09:20:54.296Z,101185.22
2024-01-24T09:24:16.949Z,101173.97
2024-01-24T09:27:50.243Z,101168.13
2024-01-24T09:31:14.440Z,101163.16
2024-01-24T09:34:37.602Z,101168.06
2024-01-24T09:38:03.415Z,101163.19
2024-01-24T09:41:26.240Z,101138.09
2024-01-24T09:44:49.553Z,101127.00
2024-01-24T09:48:14.105Z,101119.19
2024-01-24T09:51:36.860Z,101115.88
2024-01-24T09:55:06.976Z,101124.19
2024-01-24T09:58:34.060Z,101121.63
2024-01-24T10:01:56.816Z,101103.88
2024-01-24T10:05:22.544Z,101085.38
2024-01-24T10:08:45.155Z,101075.03
2024-01-24T10:12:09.648Z,101077.47
2024-01-24T10:15:32.845Z,101064.00
2024-01-24T10:18:58.853Z,101054.00
2024-01-24T10:22:24.162Z,101046.69
2024-01-24T10:25:46.891Z,101032.41
2024-01-24T10:29:11.225Z,101021.38
2024-01-24T10:32:36.118Z,100999.56
2024-01-24T10:36:10.787Z,100975.03
2024-01-24T10:39:42.138Z,100965.56
2024-01-24T10:43:07.827Z,100968.87
2024-01-24T10:46:30.665Z,100947.12
2024-01-24T10:49:53.505Z,100954.91
2024-01-24T10:53:16.906Z,100961.22
2024-01-24T10:56:43.325Z,100948.53
2024-01-24T11:00:12.914Z,100942.75
2024-01-24T11:03:40.179Z,100919.50
2024-01-24T11:07:07.286Z,100906.97
2024-01-24T11:10:35.588Z,100912.41
2024-01-24T11:14:02.948Z,100894.37
2024-01-24T11:17:25.889Z,100879.66
2024-01-24T11:20:49.175Z,100864.28
2024-01-24T11:24:11.814Z,100852.88
2024-01-24T11:27:36.254Z,100849.12
2024-01-24T11:31:01.267Z,100846.28
2024-01-24T11:34:24.659Z,100842.62
2024-01-24T11:37:48.828Z,100845.88
2024-01-24T11:41:25.743Z,100825.84
2024-01-24T11:44:51.909Z,100808.88
2024-01-24T11:48:16.272Z,100785.91
2024-01-24T11:51:38.598Z,100780.41
2024-01-24T11:55:01.784Z,100778.12
2024-01-24T11:58:27.222Z,100762.37
2024-01-24T12:01:51.252Z,100770.69
2024-01-24T12:05:17.318Z,100777.75
2024-01-24T12:08:42.571Z,100791.09
2024-01-24T12:12:06.257Z,100812.16
2024-01-24T12:15:31.670Z,100825.19
2024-01-24T12:18:54.557Z,100828.34
2024-01-24T12:22:19.268Z,100814.41
2024-01-24T12:25:43.583Z,100798.28
2024-01-24T12:29:08.524Z,100802.09
2024-01-24T12:32:31.713Z,100801.56
2024-01-24T12:35:55.158Z,100801.88
2024-01-24T12:39:27.640Z,100806.22
2024-01-24T12:42:51.096Z,100798.66
2024-01-24T12:46:14.464Z,100796.72
2024-01-24T12:49:40.551Z,100783.03
2024-01-24T12:53:03.672Z,100783.53
2024-01-24T12:56:28.243Z,100778.25
2024-01-24T12:59:51.118Z,100767.19
2024-01-24T13:03:15.806Z,100747.44
2024-01-24T13:06:42.072Z,100735.25
2024-01-24T13:10:07.185Z,100717.69
2024-01-24T13:13:32.753Z,100719.34
2024-01-24T13:17:08.090Z,100728.69
2024-01-24T13:20:30.818Z,100733.69
2024-01-24T13:23:53.826Z,100741.78
2024-01-24T13:27:16.832Z,100732.22
2024-01-24T13:30:45.130Z,100728.25
2024-01-24T13:34:08.367Z,100742.31
2024-01-24T13:37:39.743Z,100740.69
2024-01-24T13:41:02.843Z,100726.31
2024-01-24T13:44:25.273Z,100725.97
2024-01-24T13:47:48.411Z,100726.38
2024-01-24T13:51:12.048Z,100725.06
2024-01-24T13:54:36.237Z,100726.81
2024-01-24T13:58:01.564Z,100728.72
2024-01-24T14:01:24.634Z,100703.66
2024-01-24T14:04:47.919Z,100684.13
2024-01-24T14:08:10.568Z,100683.84
2024-01-24T14:11:35.906Z,100667.94
2024-01-24T14:15:05.732Z,100651.16
2024-01-24T14:18:34.788Z,100651.59
2024-01-24T14:21:57.596Z,100629.56
2024-01-24T14:25:21.183Z,100633.09
2024-01-24T14:28:47.585Z,100634.06
2024-01-24T14:32:13.058Z,100623.25
2024-01-24T14:35:35.616Z,100631.25
2024-01-24T14:38:59.920Z,100628.41
2024-01-24T14:42:23.482Z,100631.25
2024-01-24T14:45:48.132Z,100636.34
2024-01-24T14:49:12.369Z,100638.97
2024-01-24T14:52:38.420Z,100611.91
2024-01-24T14:56:00.697Z,100601.31
2024-01-24T14:59:26.585Z,100594.00
2024-01-24T15:02:51.137Z,100586.13
2024-01-24T15:06:13.985Z,100593.37
2024-01-24T15:09:37.389Z,100603.59
2024-01-24T15:13:00.255Z,100600.13
2024-01-24T15:16:23.129Z,100601.19
2024-01-24T15:19:49.783Z,100580.88
2024-01-24T15:23:15.698Z,100559.31
2024-01-24T15:26:38.426Z,100560.19
2024-01-24T15:30:01.076Z,100565.06
2024-01-24T15:33:23.824Z,100567.03
2024-01-24T15:36:48.496Z,100558.47
2024-01-24T15:40:15.885Z,100571.38
2024-01-24T15:43:40.105Z,100573.06
2024-01-24T15:47:07.220Z,100591.19
2024-01-24T15:50:30.163Z,100583.53
2024-01-24T15:53:54.704Z,100576.53
2024-01-24T15:57:17.550Z,100567.00
2024-01-24T16:00:43.540Z,100560.13
2024-01-24T16:04:06.632Z,100548.03
2024-01-24T16:07:31.918Z,100561.59
2024-01-24T16:10:58.358Z,100555.91
2024-01-24T16:14:23.316Z,100542.06
2024-01-24T16:17:46.391Z,100549.44
2024-01-24T16:21:08.951Z,100541.50
2024-01-24T16:24:31.703Z,100556.50
2024-01-24T16:27:56.019Z,100556.31
2024-01-24T16:31:19.441Z,100541.56
2024-01-24T16:34:42.001Z,100528.00
2024-01-24T16:38:07.163Z,100567.78
2024-01-24T16:41:29.461Z,100569.16
2024-01-24T16:44:53.528Z,100567.81
2024-01-24T16:48:15.906Z,100586.59
2024-01-24T16:51:38.831Z,100560.34
2024-01-24T16:55:01.727Z,100553.13
2024-01-24T16:58:24.979Z,100550.44
2024-01-24T17:01:51.180Z,100548.59
2024-01-24T17:05:14.869Z,100567.56
2024-01-24T17:08:40.276Z,100557.91
2024-01-24T17:12:02.825Z,100577.53
2024-01-24T17:15:25.513Z,100609.66
2024-01-24T17:18:50.309Z,100614.81
2024-01-24T17:22:15.832Z,100624.25
2024-01-24T17:25:43.130Z,100602.94
2024-01-24T17:29:05.923Z,100613.97
2024-01-24T17:32:31.174Z,100619.22
2024-01-24T17:35:55.549Z,100620.56
2024-01-24T17:39:21.672Z,100621.66
2024-01-24T17:42:44.544Z,100604.84
2024-01-24T17:46:09.809Z,100614.66
2024-01-24T17:49:33.043Z,100619.50
2024-01-24T17:53:06.303Z,100595.50
2024-01-24T17:56:29.528Z,100585.66
2024-01-24T18:00:00.148Z,100602.34
2024-01-24T18:03:26.380Z,100611.13
2024-01-24T18:06:53.961Z,100608.22
2024-01-24T18:10:21.732Z,100616.28
2024-01-24T18:13:50.672Z,100618.12
2024-01-24T18:17:18.623Z,100614.25
2024-01-24T18:20:44.046Z,100612.84
2024-01-24T18:24:13.358Z,100615.22
2024-01-24T18:27:40.300Z,100626.00
2024-01-24T18:31:05.858Z,100624.50
2024-01-24T18:34:38.290Z,100635.50
2024-01-24T18:38:05.863Z,100642.97
2024-01-24T18:41:36.800Z,100629.87
2024-01-24T18:45:08.474Z,100629.06
2024-01-24T18:48:34.266Z,100611.19
2024-01-24T18:52:02.583Z,100600.69
2024-01-24T18:55:31.623Z,100585.19
2024-01-24T18:58:57.828Z,100596.09
2024-01-24T19:02:26.884Z,100594.69
2024-01-24T19:05:52.600Z,100588.47
2024-01-24T19:09:19.005Z,100584.25
2024-01-24T19:12:45.557Z,100579.81
2024-01-24T19:16:14.484Z,100570.78
2024-01-24T19:19:44.601Z,100558.25
2024-01-24T19:23:10.962Z,100566.81
2024-01-24T19:26:37.569Z,100562.22
2024-01-24T19:30:04.288Z,100562.91
2024-01-24T19:33:30.318Z,100561.50
2024-01-24T19:36:58.591Z,100552.59
2024-01-24T19:40:24.730Z,100564.53
2024-01-24T19:43:52.823Z,100574.31
2024-01-24T19:47:18.824Z,100579.53
2024-01-24T19:50:46.642Z,100578.34
2024-01-24T19:54:15.484Z,100595.81
2024-01-24T19:57:42.163Z,100592.34
2024-01-24T20:01:10.642Z,100604.56
2024-01-24T20:04:40.038Z,100600.84
2024-01-24T20:08:07.524Z,100601.16
2024-01-24T20:11:38.329Z,100613.37
2024-01-24T20:15:04.486Z,100617.13
2024-01-24T20:18:30.489Z,100638.53
2024-01-24T20:21:55.982Z,100640.91
2024-01-24T20:25:27.494Z,100637.25
2024-01-24T20:28:54.633Z,100632.31
2024-01-24T20:32:20.922Z,100639.44
2024-01-24T20:35:46.423Z,100643.19
2024-01-24T20:39:13.036Z,100635.22
2024-01-24T20:42:38.170Z,100630.06
2024-01-24T20:46:05.732Z,100640.53
2024-01-24T20:49:30.996Z,100639.00
2024-01-24T20:52:56.588Z,100621.34
2024-01-24T20:56:24.516Z,100611.41
2024-01-24T20:59:50.899Z,100610.00
2024-01-24T21:03:20.981Z,100604.94
2024-01-24T21:06:49.474Z,100602.06
2024-01-24T21:10:17.872Z,100603.56
2024-01-24T21:13:42.437Z,100605.78
2024-01-24T21:17:08.918Z,100612.00
2024-01-24T21:20:34.108Z,100617.16
2024-01-24T21:24:02.856Z,100619.38
2024-01-24T21:27:32.594Z,100625.50
2024-01-24T21:30:56.117Z,100613.50
2024-01-24T21:34:19.393Z,100619.84
2024-01-24T21:37:43.351Z,100632.53
2024-01-24T21:41:07.756Z,100640.19
2024-01-24T21:44:30.186Z,100636.16
2024-01-24T21:47:52.890Z,100644.81
2024-01-24T21:51:15.688Z,100633.69
2024-01-24T21:54:41.031Z,100642.19
2024-01-24T21:58:05.940Z,100651.06
2024-01-24T22:01:34.211Z,100642.94
2024-01-24T22:04:56.802Z,100647.66
2024-01-24T22:08:21.091Z,100657.72
2024-01-24T22:11:45.094Z,100649.06
2024-01-24T22:15:09.364Z,100644.53
2024-01-24T22:18:40.934Z,100648.34
2024-01-24T22:22:09.988Z,100633.25
2024-01-24T22:25:32.874Z,100643.13
2024-01-24T22:28:56.890Z,100634.88
2024-01-24T22:32:19.756Z,100640.41
2024-01-24T22:35:43.329Z,100646.69
2024-01-24T22:39:08.393Z,100633.47
2024-01-24T22:42:31.194Z,100624.66
2024-01-24T22:45:55.509Z,100609.94
2024-01-24T22:49:19.148Z,100625.81
2024-01-24T22:52:42.471Z,100625.94
2024-01-24T22:56:05.589Z,100619.72
2024-01-24T22:59:28.805Z,100621.59
2024-01-24T23:02:53.039Z,100623.19
2024-01-24T23:06:15.973Z,100621.59
2024-01-24T23:09:38.778Z,100620.53
2024-01-24T23:13:03.720Z,100618.88
2024-01-24T23:16:25.997Z,100611.13
2024-01-24T23:19:53.655Z,100613.13
2024-01-24T23:23:16.036Z,100605.22
2024-01-24T23:26:43.482Z,100601.50
2024-01-24T23:30:12.603Z,100599.72
2024-01-24T23:33:36.113Z,100609.47
2024-01-24T23:37:00.505Z,100609.47
2024-01-24T23:40:25.715Z,100610.03
2024-01-24T23:43:48.317Z,100611.78
2024-01-24T23:47:10.980Z,100600.00
2024-01-24T23:50:33.992Z,100581.00
2024-01-24T23:54:00.656Z,100587.94
2024-01-24T23:57:27.362Z,100592.34
